sensor_id;sensor_type;location;lat;lon;timestamp;pressure;altitude;pressure_sealevel;temperature;humidity
43503;BME280;29098;48.184;16.298;2023-05-09T00:00:00;100041.59;;;9.03;74.01
43503;BME280;29098;48.184;16.298;2023-05-09T00:02:26;100058.81;;;8.98;73.82
43503;BME280;29098;48.184;16.298;2023-05-09T00:04:53;100079.44;;;9.11;74.96
43503;BME280;29098;48.184;16.298;2023-05-09T00:07:19;100039.81;;;8.86;74.46
43503;BME280;29098;48.184;16.298;2023-05-09T00:09:44;100083.09;;;9.18;75.37
43503;BME280;29098;48.184;16.298;2023-05-09T00:12:10;100102.53;;;8.99;75.91
43503;BME280;29098;48.184;16.298;2023-05-09T00:14:36;100018.56;;;8.53;74.86
43503;BME280;29098;48.184;16.298;2023-05-09T00:17:03;100042.84;;;8.91;74.60
43503;BME280;29098;48.184;16.298;2023-05-09T00:19:29;100007.50;;;8.67;73.65
43503;BME280;29098;48.184;16.298;2023-05-09T00:21:54;100061.44;;;8.98;74.65
43503;BME280;29098;48.184;16.298;2023-05-09T00:24:20;100058.00;;;8.97;74.98
43503;BME280;29098;48.184;16.298;2023-05-09T00:26:45;100065.38;;;8.75;75.52
43503;BME280;29098;48.184;16.298;2023-05-09T00:29:10;100047.53;;;8.61;75.59
43503;BME280;29098;48.184;16.298;2023-05-09T00:31:36;100065.53;;;8.56;76.12
43503;BME280;29098;48.184;16.298;2023-05-09T00:34:01;100043.25;;;8.60;76.52
43503;BME280;29098;48.184;16.298;2023-05-09T00:36:27;100024.22;;;8.30;76.80
43503;BME280;29098;48.184;16.298;2023-05-09T00:38:52;99996.25;;;8.20;77.42
43503;BME280;29098;48.184;16.298;2023-05-09T00:41:17;100072.09;;;8.52;77.59
43503;BME280;29098;48.184;16.298;2023-05-09T00:43:43;100078.03;;;8.44;78.44
43503;BME280;29098;48.184;16.298;2023-05-09T00:46:08;100018.06;;;8.21;79.34
43503;BME280;29098;48.184;16.298;2023-05-09T00:48:34;100022.78;;;8.17;79.32
43503;BME280;29098;48.184;16.298;2023-05-09T00:51:00;100023.47;;;8.19;80.08
43503;BME280;29098;48.184;16.298;2023-05-09T00:53:25;100025.16;;;7.92;80.61
43503;BME280;29098;48.184;16.298;2023-05-09T00:55:52;100082.38;;;8.35;80.83
43503;BME280;29098;48.184;16.298;2023-05-09T00:58:19;100026.00;;;8.11;81.01
43503;BME280;29098;48.184;16.298;2023-05-09T01:00:45;100077.03;;;8.27;80.84
43503;BME280;29098;48.184;16.298;2023-05-09T01:03:12;100037.81;;;8.25;80.98
43503;BME280;29098;48.184;16.298;2023-05-09T01:14:04;100023.03;;;8.06;82.93
43503;BME280;29098;48.184;16.298;2023-05-09T01:16:40;100037.00;;;7.97;83.24
43503;BME280;29098;48.184;16.298;2023-05-09T01:21:56;100002.75;;;7.98;83.15
43503;BME280;29098;48.184;16.298;2023-05-09T01:27:21;100061.72;;;8.04;83.88
43503;BME280;29098;48.184;16.298;2023-05-09T01:29:56;100046.28;;;8.19;83.78
43503;BME280;29098;48.184;16.298;2023-05-09T01:32:24;100056.72;;;8.11;83.72
43503;BME280;29098;48.184;16.298;2023-05-09T01:34:53;100056.38;;;7.95;84.77
43503;BME280;29098;48.184;16.298;2023-05-09T01:37:23;100026.78;;;7.75;84.90
43503;BME280;29098;48.184;16.298;2023-05-09T01:39:52;100049.69;;;7.83;86.10
43503;BME280;29098;48.184;16.298;2023-05-09T01:42:21;100033.84;;;7.75;86.06
43503;BME280;29098;48.184;16.298;2023-05-09T01:44:48;100043.09;;;7.97;85.58
43503;BME280;29098;48.184;16.298;2023-05-09T01:47:15;100024.63;;;7.89;85.70
43503;BME280;29098;48.184;16.298;2023-05-09T01:49:42;100042.38;;;7.77;86.19
43503;BME280;29098;48.184;16.298;2023-05-09T01:52:15;99991.59;;;7.68;85.93
43503;BME280;29098;48.184;16.298;2023-05-09T01:54:44;100015.78;;;7.62;86.25
43503;BME280;29098;48.184;16.298;2023-05-09T01:57:10;100019.28;;;7.80;86.15
43503;BME280;29098;48.184;16.298;2023-05-09T01:59:39;100006.84;;;7.82;86.20
43503;BME280;29098;48.184;16.298;2023-05-09T02:02:06;100053.16;;;8.02;85.58
43503;BME280;29098;48.184;16.298;2023-05-09T02:04:32;99973.78;;;7.62;86.23
43503;BME280;29098;48.184;16.298;2023-05-09T02:07:00;100036.66;;;7.91;86.69
43503;BME280;29098;48.184;16.298;2023-05-09T02:09:26;100035.00;;;7.62;87.99
43503;BME280;29098;48.184;16.298;2023-05-09T02:11:53;99983.09;;;7.56;87.92
43503;BME280;29098;48.184;16.298;2023-05-09T02:14:18;99985.53;;;7.67;87.54
43503;BME280;29098;48.184;16.298;2023-05-09T02:16:44;100007.03;;;7.43;88.86
43503;BME280;29098;48.184;16.298;2023-05-09T02:19:09;100032.81;;;7.58;88.56
43503;BME280;29098;48.184;16.298;2023-05-09T02:21:35;100009.19;;;7.20;90.26
43503;BME280;29098;48.184;16.298;2023-05-09T02:24:01;100023.72;;;7.52;89.63
43503;BME280;29098;48.184;16.298;2023-05-09T02:26:27;100027.03;;;7.54;89.92
43503;BME280;29098;48.184;16.298;2023-05-09T02:28:53;100028.38;;;7.58;90.05
43503;BME280;29098;48.184;16.298;2023-05-09T02:31:21;100013.94;;;7.44;89.39
43503;BME280;29098;48.184;16.298;2023-05-09T02:33:48;100043.69;;;7.63;90.00
43503;BME280;29098;48.184;16.298;2023-05-09T02:36:14;99964.00;;;7.36;89.64
43503;BME280;29098;48.184;16.298;2023-05-09T02:38:41;99997.53;;;7.42;89.86
43503;BME280;29098;48.184;16.298;2023-05-09T02:41:12;100027.53;;;7.67;89.64
43503;BME280;29098;48.184;16.298;2023-05-09T02:43:37;100040.31;;;7.43;90.89
43503;BME280;29098;48.184;16.298;2023-05-09T02:46:02;100052.91;;;7.67;89.97
43503;BME280;29098;48.184;16.298;2023-05-09T02:48:28;100022.56;;;7.26;91.25
43503;BME280;29098;48.184;16.298;2023-05-09T02:50:53;99957.63;;;7.01;91.64
43503;BME280;29098;48.184;16.298;2023-05-09T02:53:19;100046.72;;;7.58;90.72
43503;BME280;29098;48.184;16.298;2023-05-09T02:55:44;100042.09;;;7.52;91.03
43503;BME280;29098;48.184;16.298;2023-05-09T02:58:10;100041.97;;;7.44;92.42
43503;BME280;29098;48.184;16.298;2023-05-09T03:00:35;99990.84;;;7.20;91.75
43503;BME280;29098;48.184;16.298;2023-05-09T03:03:01;99996.81;;;7.02;92.68
43503;BME280;29098;48.184;16.298;2023-05-09T03:05:26;100010.00;;;7.30;91.31
43503;BME280;29098;48.184;16.298;2023-05-09T03:07:52;99979.09;;;7.24;91.47
43503;BME280;29098;48.184;16.298;2023-05-09T03:10:17;100034.38;;;7.40;91.74
43503;BME280;29098;48.184;16.298;2023-05-09T03:12:43;100043.34;;;7.48;91.42
43503;BME280;29098;48.184;16.298;2023-05-09T03:15:09;100033.56;;;7.40;90.71
43503;BME280;29098;48.184;16.298;2023-05-09T03:17:34;100036.56;;;7.45;91.13
43503;BME280;29098;48.184;16.298;2023-05-09T03:20:00;100001.25;;;7.39;90.92
43503;BME280;29098;48.184;16.298;2023-05-09T03:22:25;100035.78;;;7.35;91.47
43503;BME280;29098;48.184;16.298;2023-05-09T03:24:51;99990.09;;;7.37;91.56
43503;BME280;29098;48.184;16.298;2023-05-09T03:27:16;100033.78;;;7.57;90.50
43503;BME280;29098;48.184;16.298;2023-05-09T03:29:42;100012.47;;;7.60;89.68
43503;BME280;29098;48.184;16.298;2023-05-09T03:32:07;99998.06;;;7.46;88.80
43503;BME280;29098;48.184;16.298;2023-05-09T03:34:33;100039.19;;;7.83;87.28
43503;BME280;29098;48.184;16.298;2023-05-09T03:36:58;100006.44;;;7.77;86.01
43503;BME280;29098;48.184;16.298;2023-05-09T03:39:24;100031.00;;;7.86;85.47
43503;BME280;29098;48.184;16.298;2023-05-09T03:41:49;99992.91;;;7.82;84.72
43503;BME280;29098;48.184;16.298;2023-05-09T03:44:15;100030.94;;;7.96;82.59
43503;BME280;29098;48.184;16.298;2023-05-09T03:46:40;100023.28;;;8.03;83.32
43503;BME280;29098;48.184;16.298;2023-05-09T03:49:06;99987.59;;;8.10;80.14
43503;BME280;29098;48.184;16.298;2023-05-09T03:51:31;99999.97;;;8.00;80.09
43503;BME280;29098;48.184;16.298;2023-05-09T03:53:57;100060.16;;;8.29;79.27
43503;BME280;29098;48.184;16.298;2023-05-09T03:56:22;100048.00;;;8.28;78.48
43503;BME280;29098;48.184;16.298;2023-05-09T03:58:48;100031.94;;;8.31;79.03
43503;BME280;29098;48.184;16.298;2023-05-09T04:01:14;100063.72;;;8.38;78.11
43503;BME280;29098;48.184;16.298;2023-05-09T04:03:40;100030.38;;;8.20;78.19
43503;BME280;29098;48.184;16.298;2023-05-09T04:06:06;100004.19;;;8.11;77.88
43503;BME280;29098;48.184;16.298;2023-05-09T04:08:32;100041.25;;;8.26;77.94
43503;BME280;29098;48.184;16.298;2023-05-09T04:10:57;100010.41;;;8.28;77.05
43503;BME280;29098;48.184;16.298;2023-05-09T04:13:23;100017.69;;;8.16;78.01
43503;BME280;29098;48.184;16.298;2023-05-09T04:15:48;100059.50;;;8.45;77.50
43503;BME280;29098;48.184;16.298;2023-05-09T04:18:14;100009.38;;;8.20;77.92
43503;BME280;29098;48.184;16.298;2023-05-09T04:20:39;100037.44;;;8.20;78.03
43503;BME280;29098;48.184;16.298;2023-05-09T04:23:05;99998.09;;;8.10;78.01
43503;BME280;29098;48.184;16.298;2023-05-09T04:25:30;100061.28;;;8.27;79.04
43503;BME280;29098;48.184;16.298;2023-05-09T04:27:56;100026.97;;;8.10;78.27
43503;BME280;29098;48.184;16.298;2023-05-09T04:30:22;100069.16;;;8.55;77.11
43503;BME280;29098;48.184;16.298;2023-05-09T04:32:48;100051.59;;;8.55;76.31
43503;BME280;29098;48.184;16.298;2023-05-09T04:35:14;100052.72;;;8.71;75.35
43503;BME280;29098;48.184;16.298;2023-05-09T04:37:39;100053.59;;;8.61;75.62
43503;BME280;29098;48.184;16.298;2023-05-09T04:40:06;100031.16;;;8.67;74.89
43503;BME280;29098;48.184;16.298;2023-05-09T04:42:33;100019.88;;;8.57;74.85
43503;BME280;29098;48.184;16.298;2023-05-09T04:44:59;100006.75;;;8.57;74.88
43503;BME280;29098;48.184;16.298;2023-05-09T04:47:24;100045.63;;;8.71;75.28
43503;BME280;29098;48.184;16.298;2023-05-09T04:49:50;100020.75;;;8.47;75.49
43503;BME280;29098;48.184;16.298;2023-05-09T04:52:16;100043.66;;;8.73;75.79
43503;BME280;29098;48.184;16.298;2023-05-09T04:54:41;100007.94;;;8.62;75.05
43503;BME280;29098;48.184;16.298;2023-05-09T04:57:07;99978.06;;;8.63;73.98
43503;BME280;29098;48.184;16.298;2023-05-09T04:59:33;100007.56;;;8.75;74.49
43503;BME280;29098;48.184;16.298;2023-05-09T05:01:58;100046.31;;;9.00;74.06
43503;BME280;29098;48.184;16.298;2023-05-09T05:04:24;100006.53;;;8.68;74.30
43503;BME280;29098;48.184;16.298;2023-05-09T05:06:49;99985.03;;;8.73;74.21
43503;BME280;29098;48.184;16.298;2023-05-09T05:09:15;100052.09;;;9.03;73.94
43503;BME280;29098;48.184;16.298;2023-05-09T05:11:40;100033.91;;;8.84;74.01
43503;BME280;29098;48.184;16.298;2023-05-09T05:14:06;99996.72;;;9.05;72.91
43503;BME280;29098;48.184;16.298;2023-05-09T05:16:31;100065.44;;;9.28;72.44
43503;BME280;29098;48.184;16.298;2023-05-09T05:18:56;100015.19;;;9.13;72.63
43503;BME280;29098;48.184;16.298;2023-05-09T05:21:22;100006.25;;;9.06;73.20
43503;BME280;29098;48.184;16.298;2023-05-09T05:23:47;100051.44;;;9.28;72.43
43503;BME280;29098;48.184;16.298;2023-05-09T05:26:13;100021.16;;;9.24;71.47
43503;BME280;29098;48.184;16.298;2023-05-09T05:28:38;100060.09;;;9.46;70.78
43503;BME280;29098;48.184;16.298;2023-05-09T05:31:04;100019.41;;;9.32;71.93
43503;BME280;29098;48.184;16.298;2023-05-09T05:33:29;100063.22;;;9.50;71.06
43503;BME280;29098;48.184;16.298;2023-05-09T05:35:55;100006.50;;;9.48;70.64
43503;BME280;29098;48.184;16.298;2023-05-09T05:38:20;100034.63;;;9.55;70.42
43503;BME280;29098;48.184;16.298;2023-05-09T05:40:46;100046.22;;;9.71;69.83
43503;BME280;29098;48.184;16.298;2023-05-09T05:43:11;100025.50;;;9.76;69.10
43503;BME280;29098;48.184;16.298;2023-05-09T05:45:36;99979.84;;;9.51;68.28
43503;BME280;29098;48.184;16.298;2023-05-09T05:48:02;100033.72;;;9.81;68.61
43503;BME280;29098;48.184;16.298;2023-05-09T05:50:28;100010.38;;;9.78;68.20
43503;BME280;29098;48.184;16.298;2023-05-09T05:52:53;99992.63;;;9.89;68.50
43503;BME280;29098;48.184;16.298;2023-05-09T05:55:19;100008.13;;;10.00;67.76
43503;BME280;29098;48.184;16.298;2023-05-09T05:57:44;100005.00;;;9.96;67.84
43503;BME280;29098;48.184;16.298;2023-05-09T06:00:12;100042.06;;;10.28;68.41
43503;BME280;29098;48.184;16.298;2023-05-09T06:02:41;99992.50;;;10.23;66.96
43503;BME280;29098;48.184;16.298;2023-05-09T06:05:09;100001.59;;;10.37;66.65
43503;BME280;29098;48.184;16.298;2023-05-09T06:07:35;99981.81;;;10.25;64.92
43503;BME280;29098;48.184;16.298;2023-05-09T06:10:01;99987.91;;;10.34;64.34
43503;BME280;29098;48.184;16.298;2023-05-09T06:12:26;100041.66;;;10.82;63.29
43503;BME280;29098;48.184;16.298;2023-05-09T06:14:52;100027.63;;;10.82;63.21
43503;BME280;29098;48.184;16.298;2023-05-09T06:17:17;100040.34;;;10.95;63.80
43503;BME280;29098;48.184;16.298;2023-05-09T06:19:43;99991.41;;;10.67;62.62
43503;BME280;29098;48.184;16.298;2023-05-09T06:22:09;100026.97;;;10.88;62.84
43503;BME280;29098;48.184;16.298;2023-05-09T06:24:34;100012.09;;;11.04;62.43
43503;BME280;29098;48.184;16.298;2023-05-09T06:26:59;100029.91;;;11.10;62.55
43503;BME280;29098;48.184;16.298;2023-05-09T06:29:25;100017.56;;;11.10;62.49
43503;BME280;29098;48.184;16.298;2023-05-09T06:31:51;100015.84;;;11.26;61.33
43503;BME280;29098;48.184;16.298;2023-05-09T06:34:16;99949.16;;;10.92;62.00
43503;BME280;29098;48.184;16.298;2023-05-09T06:36:41;100031.81;;;11.33;62.16
43503;BME280;29098;48.184;16.298;2023-05-09T06:39:07;99970.84;;;11.19;61.25
43503;BME280;29098;48.184;16.298;2023-05-09T06:41:32;100013.88;;;11.28;61.22
43503;BME280;29098;48.184;16.298;2023-05-09T06:43:58;99975.50;;;11.01;61.73
43503;BME280;29098;48.184;16.298;2023-05-09T06:46:24;99965.94;;;11.08;61.43
43503;BME280;29098;48.184;16.298;2023-05-09T06:48:49;100009.69;;;11.42;61.18
43503;BME280;29098;48.184;16.298;2023-05-09T06:51:15;99980.97;;;11.47;61.09
43503;BME280;29098;48.184;16.298;2023-05-09T06:53:40;99942.72;;;11.35;60.39
43503;BME280;29098;48.184;16.298;2023-05-09T06:56:06;100014.94;;;11.50;60.86
43503;BME280;29098;48.184;16.298;2023-05-09T06:58:31;100012.59;;;11.56;60.46
43503;BME280;29098;48.184;16.298;2023-05-09T07:00:57;99992.88;;;11.35;60.30
43503;BME280;29098;48.184;16.298;2023-05-09T07:03:22;99928.63;;;11.11;60.46
43503;BME280;29098;48.184;16.298;2023-05-09T07:05:47;100014.25;;;11.57;61.29
43503;BME280;29098;48.184;16.298;2023-05-09T07:08:13;99980.75;;;11.57;60.76
43503;BME280;29098;48.184;16.298;2023-05-09T07:10:38;99983.00;;;11.69;60.92
43503;BME280;29098;48.184;16.298;2023-05-09T07:13:04;99961.44;;;11.57;61.11
43503;BME280;29098;48.184;16.298;2023-05-09T07:15:30;99996.31;;;11.84;61.38
43503;BME280;29098;48.184;16.298;2023-05-09T07:17:56;100010.41;;;11.99;60.53
43503;BME280;29098;48.184;16.298;2023-05-09T07:20:21;99991.44;;;12.04;60.85
43503;BME280;29098;48.184;16.298;2023-05-09T07:22:46;99990.94;;;12.00;59.14
43503;BME280;29098;48.184;16.298;2023-05-09T07:25:12;99987.66;;;12.22;59.23
43503;BME280;29098;48.184;16.298;2023-05-09T07:27:37;99944.19;;;12.24;58.77
43503;BME280;29098;48.184;16.298;2023-05-09T07:30:04;99980.84;;;12.51;58.76
43503;BME280;29098;48.184;16.298;2023-05-09T07:32:29;100012.50;;;12.74;57.21
43503;BME280;29098;48.184;16.298;2023-05-09T07:34:55;99987.34;;;12.78;57.37
43503;BME280;29098;48.184;16.298;2023-05-09T07:37:20;100005.28;;;13.06;57.22
43503;BME280;29098;48.184;16.298;2023-05-09T07:39:46;99956.81;;;13.06;56.60
43503;BME280;29098;48.184;16.298;2023-05-09T07:42:12;99971.41;;;13.17;55.71
43503;BME280;29098;48.184;16.298;2023-05-09T07:44:37;99939.03;;;12.84;56.23
43503;BME280;29098;48.184;16.298;2023-05-09T07:47:03;99929.34;;;13.07;56.08
43503;BME280;29098;48.184;16.298;2023-05-09T07:49:32;99959.50;;;13.42;56.67
43503;BME280;29098;48.184;16.298;2023-05-09T07:51:57;99944.44;;;13.58;55.73
43503;BME280;29098;48.184;16.298;2023-05-09T07:54:23;99971.91;;;13.72;55.00
43503;BME280;29098;48.184;16.298;2023-05-09T07:56:48;99982.19;;;13.60;54.34
43503;BME280;29098;48.184;16.298;2023-05-09T07:59:14;99932.09;;;13.65;53.67
43503;BME280;29098;48.184;16.298;2023-05-09T08:01:39;99931.31;;;13.87;53.65
43503;BME280;29098;48.184;16.298;2023-05-09T08:04:05;99926.94;;;14.01;52.93
43503;BME280;29098;48.184;16.298;2023-05-09T08:06:33;99931.50;;;14.07;52.44
43503;BME280;29098;48.184;16.298;2023-05-09T08:08:58;99883.34;;;14.03;52.16
43503;BME280;29098;48.184;16.298;2023-05-09T08:11:24;99960.88;;;14.34;51.77
43503;BME280;29098;48.184;16.298;2023-05-09T08:13:49;99901.44;;;14.21;51.77
43503;BME280;29098;48.184;16.298;2023-05-09T08:16:15;99968.84;;;14.34;51.73
43503;BME280;29098;48.184;16.298;2023-05-09T08:18:42;99937.41;;;14.31;52.74
43503;BME280;29098;48.184;16.298;2023-05-09T08:21:07;99894.69;;;14.19;52.53
43503;BME280;29098;48.184;16.298;2023-05-09T08:23:33;99899.88;;;14.05;52.28
43503;BME280;29098;48.184;16.298;2023-05-09T08:25:58;99908.28;;;14.16;53.33
43503;BME280;29098;48.184;16.298;2023-05-09T08:28:23;99913.53;;;14.31;52.56
43503;BME280;29098;48.184;16.298;2023-05-09T08:30:52;99959.63;;;14.30;51.72
43503;BME280;29098;48.184;16.298;2023-05-09T08:33:17;99933.56;;;14.11;51.75
43503;BME280;29098;48.184;16.298;2023-05-09T08:35:43;99942.63;;;14.24;52.87
43503;BME280;29098;48.184;16.298;2023-05-09T08:38:08;99941.75;;;14.17;53.01
43503;BME280;29098;48.184;16.298;2023-05-09T08:40:37;99896.59;;;14.03;52.54
43503;BME280;29098;48.184;16.298;2023-05-09T08:43:05;99896.34;;;13.98;53.34
43503;BME280;29098;48.184;16.298;2023-05-09T08:45:34;99947.81;;;14.32;53.44
43503;BME280;29098;48.184;16.298;2023-05-09T08:48:03;99919.91;;;14.36;53.11
43503;BME280;29098;48.184;16.298;2023-05-09T08:50:31;99934.69;;;14.24;52.73
43503;BME280;29098;48.184;16.298;2023-05-09T08:52:57;99895.00;;;13.87;52.42
43503;BME280;29098;48.184;16.298;2023-05-09T08:55:22;99932.16;;;14.16;52.34
43503;BME280;29098;48.184;16.298;2023-05-09T08:57:48;99903.38;;;14.13;53.90
43503;BME280;29098;48.184;16.298;2023-05-09T09:00:14;99905.56;;;14.31;54.15
43503;BME280;29098;48.184;16.298;2023-05-09T09:02:41;99885.16;;;14.03;53.83
43503;BME280;29098;48.184;16.298;2023-05-09T09:05:07;99905.50;;;14.24;53.08
43503;BME280;29098;48.184;16.298;2023-05-09T09:07:35;99899.72;;;14.14;53.07
43503;BME280;29098;48.184;16.298;2023-05-09T09:10:02;99875.00;;;14.06;52.00
43503;BME280;29098;48.184;16.298;2023-05-09T09:12:28;99890.03;;;14.28;52.29
43503;BME280;29098;48.184;16.298;2023-05-09T09:14:55;99911.00;;;14.44;52.55
43503;BME280;29098;48.184;16.298;2023-05-09T09:17:25;99900.91;;;14.33;51.98
43503;BME280;29098;48.184;16.298;2023-05-09T09:19:54;99885.16;;;14.31;52.36
43503;BME280;29098;48.184;16.298;2023-05-09T09:22:21;99916.56;;;14.56;52.14
43503;BME280;29098;48.184;16.298;2023-05-09T09:24:46;99891.72;;;14.64;51.76
43503;BME280;29098;48.184;16.298;2023-05-09T09:27:12;99888.75;;;14.45;51.71
43503;BME280;29098;48.184;16.298;2023-05-09T09:29:37;99863.13;;;14.66;53.10
43503;BME280;29098;48.184;16.298;2023-05-09T09:32:04;99866.44;;;14.68;51.86
43503;BME280;29098;48.184;16.298;2023-05-09T09:34:30;99880.91;;;15.01;52.50
43503;BME280;29098;48.184;16.298;2023-05-09T09:36:57;99872.56;;;15.11;51.20
43503;BME280;29098;48.184;16.298;2023-05-09T09:39:22;99861.09;;;15.03;51.05
43503;BME280;29098;48.184;16.298;2023-05-09T09:41:47;99875.28;;;15.17;51.62
43503;BME280;29098;48.184;16.298;2023-05-09T09:44:17;99850.78;;;15.22;50.80
43503;BME280;29098;48.184;16.298;2023-05-09T09:49:16;99859.53;;;15.16;50.11
43503;BME280;29098;48.184;16.298;2023-05-09T09:51:42;99882.84;;;15.27;49.94
43503;BME280;29098;48.184;16.298;2023-05-09T09:54:10;99856.47;;;15.19;50.08
43503;BME280;29098;48.184;16.298;2023-05-09T09:56:46;99868.53;;;15.22;49.78
43503;BME280;29098;48.184;16.298;2023-05-09T09:59:17;99864.91;;;15.43;49.97
43503;BME280;29098;48.184;16.298;2023-05-09T10:02:03;99860.81;;;15.40;50.13
43503;BME280;29098;48.184;16.298;2023-05-09T10:04:32;99858.38;;;15.45;49.54
43503;BME280;29098;48.184;16.298;2023-05-09T10:07:09;99865.56;;;15.65;48.84
43503;BME280;29098;48.184;16.298;2023-05-09T10:09:35;99844.50;;;15.64;50.61
43503;BME280;29098;48.184;16.298;2023-05-09T10:12:06;99856.56;;;15.66;49.85
43503;BME280;29098;48.184;16.298;2023-05-09T10:14:35;99862.31;;;15.77;48.83
43503;BME280;29098;48.184;16.298;2023-05-09T10:17:03;99859.91;;;16.02;49.42
43503;BME280;29098;48.184;16.298;2023-05-09T10:19:29;99888.34;;;16.08;48.36
43503;BME280;29098;48.184;16.298;2023-05-09T10:22:01;99873.59;;;16.12;48.92
43503;BME280;29098;48.184;16.298;2023-05-09T10:24:47;99849.03;;;16.24;48.91
43503;BME280;29098;48.184;16.298;2023-05-09T10:27:18;99843.72;;;16.24;49.17
43503;BME280;29098;48.184;16.298;2023-05-09T10:29:50;99864.56;;;16.40;49.98
43503;BME280;29098;48.184;16.298;2023-05-09T10:32:26;99837.53;;;16.43;49.06
43503;BME280;29098;48.184;16.298;2023-05-09T10:34:59;99865.16;;;16.56;48.35
43503;BME280;29098;48.184;16.298;2023-05-09T10:37:26;99858.16;;;16.68;48.33
43503;BME280;29098;48.184;16.298;2023-05-09T10:39:53;99840.56;;;16.67;48.84
43503;BME280;29098;48.184;16.298;2023-05-09T10:42:19;99817.38;;;16.81;48.42
43503;BME280;29098;48.184;16.298;2023-05-09T10:44:48;99791.88;;;16.99;47.63
43503;BME280;29098;48.184;16.298;2023-05-09T10:47:14;99835.31;;;17.45;47.97
43503;BME280;29098;48.184;16.298;2023-05-09T10:49:40;99800.31;;;17.35;45.80
43503;BME280;29098;48.184;16.298;2023-05-09T10:52:06;99840.13;;;17.62;45.80
43503;BME280;29098;48.184;16.298;2023-05-09T10:54:35;99799.06;;;17.37;45.29
43503;BME280;29098;48.184;16.298;2023-05-09T10:57:01;99785.53;;;17.39;45.23
43503;BME280;29098;48.184;16.298;2023-05-09T10:59:41;99828.41;;;17.63;45.12
43503;BME280;29098;48.184;16.298;2023-05-09T11:02:14;99826.22;;;17.53;45.62
43503;BME280;29098;48.184;16.298;2023-05-09T11:04:43;99826.16;;;17.60;45.61
43503;BME280;29098;48.184;16.298;2023-05-09T11:07:24;99826.69;;;17.75;45.84
43503;BME280;29098;48.184;16.298;2023-05-09T11:10:06;99777.78;;;17.82;44.09
43503;BME280;29098;48.184;16.298;2023-05-09T11:12:32;99795.81;;;17.61;44.48
43503;BME280;29098;48.184;16.298;2023-05-09T11:15:05;99778.91;;;17.48;45.32
43503;BME280;29098;48.184;16.298;2023-05-09T11:17:36;99765.28;;;17.57;45.60
43503;BME280;29098;48.184;16.298;2023-05-09T11:20:03;99801.75;;;17.63;45.56
43503;BME280;29098;48.184;16.298;2023-05-09T11:22:43;99752.72;;;17.64;45.38
43503;BME280;29098;48.184;16.298;2023-05-09T11:25:11;99781.31;;;18.26;44.92
43503;BME280;29098;48.184;16.298;2023-05-09T11:30:08;99798.22;;;18.39;44.16
43503;BME280;29098;48.184;16.298;2023-05-09T11:32:46;99734.97;;;18.39;43.61
43503;BME280;29098;48.184;16.298;2023-05-09T11:35:18;99763.34;;;18.52;43.09
43503;BME280;29098;48.184;16.298;2023-05-09T11:40:20;99787.25;;;18.47;45.66
43503;BME280;29098;48.184;16.298;2023-05-09T11:42:48;99780.22;;;18.83;45.32
43503;BME280;29098;48.184;16.298;2023-05-09T11:45:15;99722.06;;;18.85;43.22
43503;BME280;29098;48.184;16.298;2023-05-09T11:47:41;99751.19;;;19.06;42.16
43503;BME280;29098;48.184;16.298;2023-05-09T11:50:11;99722.41;;;18.58;42.76
43503;BME280;29098;48.184;16.298;2023-05-09T11:52:37;99728.03;;;18.69;42.30
43503;BME280;29098;48.184;16.298;2023-05-09T11:57:34;99765.19;;;19.01;42.53
43503;BME280;29098;48.184;16.298;2023-05-09T12:00:00;99770.28;;;19.21;42.89
43503;BME280;29098;48.184;16.298;2023-05-09T12:02:26;99749.41;;;18.69;43.04
43503;BME280;29098;48.184;16.298;2023-05-09T12:04:52;99719.03;;;18.32;43.18
43503;BME280;29098;48.184;16.298;2023-05-09T12:07:19;99759.94;;;18.26;43.73
43503;BME280;29098;48.184;16.298;2023-05-09T12:09:44;99742.25;;;18.13;43.64
43503;BME280;29098;48.184;16.298;2023-05-09T12:12:13;99707.03;;;17.79;44.32
43503;BME280;29098;48.184;16.298;2023-05-09T12:14:40;99736.06;;;18.13;44.40
43503;BME280;29098;48.184;16.298;2023-05-09T12:17:08;99712.38;;;17.60;44.45
43503;BME280;29098;48.184;16.298;2023-05-09T12:19:34;99731.47;;;18.01;44.18
43503;BME280;29098;48.184;16.298;2023-05-09T12:22:02;99722.03;;;18.55;42.72
43503;BME280;29098;48.184;16.298;2023-05-09T12:24:29;99715.72;;;18.68;41.50
43503;BME280;29098;48.184;16.298;2023-05-09T12:26:58;99667.91;;;18.47;41.44
43503;BME280;29098;48.184;16.298;2023-05-09T12:29:24;99676.06;;;18.22;42.02
43503;BME280;29098;48.184;16.298;2023-05-09T12:31:52;99665.38;;;18.53;42.32
43503;BME280;29098;48.184;16.298;2023-05-09T12:34:18;99695.16;;;18.38;42.79
43503;BME280;29098;48.184;16.298;2023-05-09T12:36:45;99729.09;;;18.49;42.76
43503;BME280;29098;48.184;16.298;2023-05-09T12:39:18;99675.16;;;18.59;43.05
43503;BME280;29098;48.184;16.298;2023-05-09T12:41:49;99712.06;;;19.35;42.53
43503;BME280;29098;48.184;16.298;2023-05-09T12:44:22;99689.97;;;19.16;39.88
43503;BME280;29098;48.184;16.298;2023-05-09T12:49:23;99701.38;;;19.47;40.14
43503;BME280;29098;48.184;16.298;2023-05-09T12:51:49;99668.03;;;19.50;40.37
43503;BME280;29098;48.184;16.298;2023-05-09T12:54:28;99636.72;;;19.86;39.74
43503;BME280;29098;48.184;16.298;2023-05-09T12:56:55;99615.34;;;19.74;40.28
43503;BME280;29098;48.184;16.298;2023-05-09T12:59:23;99606.56;;;19.38;39.83
43503;BME280;29098;48.184;16.298;2023-05-09T13:01:56;99648.47;;;19.01;40.79
43503;BME280;29098;48.184;16.298;2023-05-09T13:04:22;99609.44;;;19.12;40.51
43503;BME280;29098;48.184;16.298;2023-05-09T13:06:50;99665.25;;;19.68;40.33
43503;BME280;29098;48.184;16.298;2023-05-09T13:09:16;99632.66;;;19.95;38.96
43503;BME280;29098;48.184;16.298;2023-05-09T13:11:43;99654.88;;;20.25;38.77
43503;BME280;29098;48.184;16.298;2023-05-09T13:14:09;99665.56;;;20.37;38.00